sensor_id;sensor_type;location;lat;lon;timestamp;P1;durP1;ratioP1;P2;durP2;ratioP2
18647;SDS011;9453;50.294;18.644;2023-08-20T04:01:40;22.55;;;14.90;;
18647;SDS011;9453;50.294;18.644;2023-08-20T04:04:07;20.60;;;14.57;;
18647;SDS011;9453;50.294;18.644;2023-08-20T04:06:34;21.95;;;15.32;;
18647;SDS011;9453;50.294;18.644;2023-08-20T04:09:01;20.02;;;15.25;;
18647;SDS011;9453;50.294;18.644;2023-08-20T04:11:28;19.05;;;13.88;;
18647;SDS011;9453;50.294;18.644;2023-08-20T04:13:55;17.85;;;12.93;;
18647;SDS011;9453;50.294;18.644;2023-08-20T04:16:22;17.45;;;12.98;;
18647;SDS011;9453;50.294;18.644;2023-08-20T04:18:51;16.52;;;13.02;;
18647;SDS011;9453;50.294;18.644;2023-08-20T04:21:17;20.65;;;15.52;;
18647;SDS011;9453;50.294;18.644;2023-08-20T04:23:44;20.77;;;15.90;;
18647;SDS011;9453;50.294;18.644;2023-08-20T04:26:11;22.25;;;15.80;;
18647;SDS011;9453;50.294;18.644;2023-08-20T04:28:38;20.02;;;14.60;;
18647;SDS011;9453;50.294;18.644;2023-08-20T04:31:05;20.80;;;14.73;;
18647;SDS011;9453;50.294;18.644;2023-08-20T04:33:32;18.45;;;14.18;;
18647;SDS011;9453;50.294;18.644;2023-08-20T04:36:01;19.20;;;14.10;;
18647;SDS011;9453;50.294;18.644;2023-08-20T04:38:27;20.25;;;14.68;;
18647;SDS011;9453;50.294;18.644;2023-08-20T04:40:54;20.67;;;15.02;;
18647;SDS011;9453;50.294;18.644;2023-08-20T04:43:21;20.42;;;14.55;;
18647;SDS011;9453;50.294;18.644;2023-08-20T04:45:49;22.45;;;14.60;;
18647;SDS011;9453;50.294;18.644;2023-08-20T04:48:16;17.58;;;13.60;;
18647;SDS011;9453;50.294;18.644;2023-08-20T04:50:43;16.67;;;13.07;;
18647;SDS011;9453;50.294;18.644;2023-08-20T04:53:11;17.58;;;12.88;;
18647;SDS011;9453;50.294;18.644;2023-08-20T04:55:38;17.15;;;13.27;;
18647;SDS011;9453;50.294;18.644;2023-08-20T04:58:05;19.00;;;14.38;;
18647;SDS011;9453;50.294;18.644;2023-08-20T05:00:32;25.85;;;16.63;;
18647;SDS011;9453;50.294;18.644;2023-08-20T05:02:59;20.00;;;15.80;;
18647;SDS011;9453;50.294;18.644;2023-08-20T05:05:26;19.27;;;14.80;;
18647;SDS011;9453;50.294;18.644;2023-08-20T05:07:53;20.85;;;14.60;;
18647;SDS011;9453;50.294;18.644;2023-08-20T05:10:21;19.23;;;13.52;;
18647;SDS011;9453;50.294;18.644;2023-08-20T05:12:48;17.73;;;13.32;;
18647;SDS011;9453;50.294;18.644;2023-08-20T05:15:15;18.42;;;13.23;;
18647;SDS011;9453;50.294;18.644;2023-08-20T05:17:42;18.42;;;13.98;;
18647;SDS011;9453;50.294;18.644;2023-08-20T05:20:09;17.10;;;12.18;;
18647;SDS011;9453;50.294;18.644;2023-08-20T05:22:36;17.73;;;12.90;;
18647;SDS011;9453;50.294;18.644;2023-08-20T05:25:03;17.45;;;12.98;;
18647;SDS011;9453;50.294;18.644;2023-08-20T05:27:32;17.17;;;13.32;;
18647;SDS011;9453;50.294;18.644;2023-08-20T05:29:59;18.33;;;12.70;;
18647;SDS011;9453;50.294;18.644;2023-08-20T05:32:26;18.27;;;13.13;;
18647;SDS011;9453;50.294;18.644;2023-08-20T05:34:53;18.63;;;12.82;;
18647;SDS011;9453;50.294;18.644;2023-08-20T05:37:20;17.95;;;13.20;;
18647;SDS011;9453;50.294;18.644;2023-08-20T05:39:47;18.40;;;13.80;;
18647;SDS011;9453;50.294;18.644;2023-08-20T05:42:13;18.52;;;14.02;;
18647;SDS011;9453;50.294;18.644;2023-08-20T05:44:42;17.30;;;13.35;;
18647;SDS011;9453;50.294;18.644;2023-08-20T05:47:08;18.90;;;13.32;;
18647;SDS011;9453;50.294;18.644;2023-08-20T05:49:35;16.15;;;12.25;;
18647;SDS011;9453;50.294;18.644;2023-08-20T05:52:03;19.05;;;13.57;;
18647;SDS011;9453;50.294;18.644;2023-08-20T05:54:30;15.57;;;11.93;;
18647;SDS011;9453;50.294;18.644;2023-08-20T05:56:57;17.45;;;13.13;;
18647;SDS011;9453;50.294;18.644;2023-08-20T05:59:24;20.90;;;12.40;;
18647;SDS011;9453;50.294;18.644;2023-08-20T06:01:53;14.35;;;11.32;;
18647;SDS011;9453;50.294;18.644;2023-08-20T06:04:20;15.50;;;11.13;;
18647;SDS011;9453;50.294;18.644;2023-08-20T06:06:47;13.88;;;10.85;;
18647;SDS011;9453;50.294;18.644;2023-08-20T06:09:14;13.95;;;10.55;;
18647;SDS011;9453;50.294;18.644;2023-08-20T06:11:41;13.70;;;11.13;;
18647;SDS011;9453;50.294;18.644;2023-08-20T06:14:08;15.05;;;11.40;;
18647;SDS011;9453;50.294;18.644;2023-08-20T06:16:35;13.57;;;11.43;;
18647;SDS011;9453;50.294;18.644;2023-08-20T06:19:03;14.10;;;11.02;;
18647;SDS011;9453;50.294;18.644;2023-08-20T06:21:30;13.23;;;10.52;;
18647;SDS011;9453;50.294;18.644;2023-08-20T06:23:57;12.13;;;10.05;;
18647;SDS011;9453;50.294;18.644;2023-08-20T06:26:24;12.38;;;9.77;;
18647;SDS011;9453;50.294;18.644;2023-08-20T06:28:50;13.43;;;9.52;;
18647;SDS011;9453;50.294;18.644;2023-08-20T06:31:17;13.65;;;10.85;;
18647;SDS011;9453;50.294;18.644;2023-08-20T06:33:44;12.90;;;9.88;;
18647;SDS011;9453;50.294;18.644;2023-08-20T06:36:14;12.60;;;10.30;;
18647;SDS011;9453;50.294;18.644;2023-08-20T06:38:41;12.00;;;9.75;;
18647;SDS011;9453;50.294;18.644;2023-08-20T06:41:08;11.52;;;9.52;;
18647;SDS011;9453;50.294;18.644;2023-08-20T06:43:34;13.45;;;10.80;;
18647;SDS011;9453;50.294;18.644;2023-08-20T06:46:01;13.73;;;11.50;;
18647;SDS011;9453;50.294;18.644;2023-08-20T06:48:28;12.80;;;10.23;;
18647;SDS011;9453;50.294;18.644;2023-08-20T06:50:55;12.65;;;10.05;;
18647;SDS011;9453;50.294;18.644;2023-08-20T06:53:23;11.32;;;9.48;;
18647;SDS011;9453;50.294;18.644;2023-08-20T06:55:50;12.45;;;9.82;;
18647;SDS011;9453;50.294;18.644;2023-08-20T06:58:17;10.40;;;8.82;;
18647;SDS011;9453;50.294;18.644;2023-08-20T07:00:44;13.55;;;10.50;;
18647;SDS011;9453;50.294;18.644;2023-08-20T07:03:11;14.98;;;11.63;;
18647;SDS011;9453;50.294;18.644;2023-08-20T07:05:38;17.05;;;11.73;;
18647;SDS011;9453;50.294;18.644;2023-08-20T07:08:05;13.93;;;10.90;;
18647;SDS011;9453;50.294;18.644;2023-08-20T07:10:33;12.45;;;10.10;;
18647;SDS011;9453;50.294;18.644;2023-08-20T07:13:00;16.75;;;12.88;;
18647;SDS011;9453;50.294;18.644;2023-08-20T07:15:29;14.68;;;11.48;;
18647;SDS011;9453;50.294;18.644;2023-08-20T07:17:56;17.60;;;13.13;;
18647;SDS011;9453;50.294;18.644;2023-08-20T07:20:22;16.38;;;11.35;;
18647;SDS011;9453;50.294;18.644;2023-08-20T07:22:49;13.00;;;10.63;;
18647;SDS011;9453;50.294;18.644;2023-08-20T07:25:16;12.52;;;10.02;;
18647;SDS011;9453;50.294;18.644;2023-08-20T07:27:45;10.35;;;8.88;;
18647;SDS011;9453;50.294;18.644;2023-08-20T07:30:12;11.13;;;9.60;;
18647;SDS011;9453;50.294;18.644;2023-08-20T07:32:39;13.57;;;10.15;;
18647;SDS011;9453;50.294;18.644;2023-08-20T07:35:06;10.18;;;8.80;;
18647;SDS011;9453;50.294;18.644;2023-08-20T07:37:35;11.02;;;8.32;;
18647;SDS011;9453;50.294;18.644;2023-08-20T07:40:02;9.80;;;8.30;;
18647;SDS011;9453;50.294;18.644;2023-08-20T07:42:29;11.20;;;8.80;;
18647;SDS011;9453;50.294;18.644;2023-08-20T07:44:57;13.65;;;10.05;;
18647;SDS011;9453;50.294;18.644;2023-08-20T07:47:24;14.23;;;10.60;;
18647;SDS011;9453;50.294;18.644;2023-08-20T07:49:51;11.80;;;9.60;;
18647;SDS011;9453;50.294;18.644;2023-08-20T07:52:18;10.45;;;8.90;;
18647;SDS011;9453;50.294;18.644;2023-08-20T07:54:45;11.75;;;8.73;;
18647;SDS011;9453;50.294;18.644;2023-08-20T07:57:11;12.18;;;9.07;;
18647;SDS011;9453;50.294;18.644;2023-08-20T07:59:38;12.50;;;9.68;;
18647;SDS011;9453;50.294;18.644;2023-08-20T08:02:07;15.35;;;9.77;;
18647;SDS011;9453;50.294;18.644;2023-08-20T08:04:35;13.95;;;10.50;;
18647;SDS011;9453;50.294;18.644;2023-08-20T08:07:02;12.02;;;9.65;;
18647;SDS011;9453;50.294;18.644;2023-08-20T08:09:29;12.38;;;10.25;;
18647;SDS011;9453;50.294;18.644;2023-08-20T08:11:57;15.52;;;11.45;;
18647;SDS011;9453;50.294;18.644;2023-08-20T08:14:25;11.38;;;10.18;;
18647;SDS011;9453;50.294;18.644;2023-08-20T08:16:52;10.57;;;9.10;;
18647;SDS011;9453;50.294;18.644;2023-08-20T08:19:20;9.88;;;8.43;;
18647;SDS011;9453;50.294;18.644;2023-08-20T08:21:47;12.35;;;9.40;;
18647;SDS011;9453;50.294;18.644;2023-08-20T08:24:14;14.15;;;11.07;;
18647;SDS011;9453;50.294;18.644;2023-08-20T08:26:42;11.20;;;9.63;;
18647;SDS011;9453;50.294;18.644;2023-08-20T08:29:08;9.82;;;8.77;;
18647;SDS011;9453;50.294;18.644;2023-08-20T08:31:35;12.60;;;9.60;;
18647;SDS011;9453;50.294;18.644;2023-08-20T08:34:02;11.05;;;9.63;;
18647;SDS011;9453;50.294;18.644;2023-08-20T08:36:31;10.48;;;8.88;;
18647;SDS011;9453;50.294;18.644;2023-08-20T08:38:58;11.25;;;8.70;;
18647;SDS011;9453;50.294;18.644;2023-08-20T08:41:25;11.98;;;10.25;;
18647;SDS011;9453;50.294;18.644;2023-08-20T08:43:54;12.15;;;10.63;;
18647;SDS011;9453;50.294;18.644;2023-08-20T08:46:22;13.25;;;10.82;;
18647;SDS011;9453;50.294;18.644;2023-08-20T08:48:50;12.27;;;10.10;;
18647;SDS011;9453;50.294;18.644;2023-08-20T08:51:18;14.63;;;10.40;;
18647;SDS011;9453;50.294;18.644;2023-08-20T08:53:47;15.18;;;10.52;;
18647;SDS011;9453;50.294;18.644;2023-08-20T08:56:13;14.02;;;11.05;;
18647;SDS011;9453;50.294;18.644;2023-08-20T08:58:40;15.07;;;11.18;;
18647;SDS011;9453;50.294;18.644;2023-08-20T09:01:07;12.02;;;8.98;;
18647;SDS011;9453;50.294;18.644;2023-08-20T09:03:34;15.65;;;9.93;;
18647;SDS011;9453;50.294;18.644;2023-08-20T09:06:01;12.85;;;9.80;;
18647;SDS011;9453;50.294;18.644;2023-08-20T09:08:33;12.70;;;9.65;;
18647;SDS011;9453;50.294;18.644;2023-08-20T09:11:02;15.82;;;11.75;;
18647;SDS011;9453;50.294;18.644;2023-08-20T09:13:32;10.75;;;9.00;;
18647;SDS011;9453;50.294;18.644;2023-08-20T09:16:03;9.95;;;7.82;;
18647;SDS011;9453;50.294;18.644;2023-08-20T09:18:30;10.30;;;8.35;;
18647;SDS011;9453;50.294;18.644;2023-08-20T09:20:58;16.63;;;10.45;;
18647;SDS011;9453;50.294;18.644;2023-08-20T09:23:28;11.00;;;9.43;;
18647;SDS011;9453;50.294;18.644;2023-08-20T09:25:55;10.45;;;8.45;;
18647;SDS011;9453;50.294;18.644;2023-08-20T09:28:24;11.52;;;8.00;;
18647;SDS011;9453;50.294;18.644;2023-08-20T09:30:54;10.70;;;8.50;;
18647;SDS011;9453;50.294;18.644;2023-08-20T09:33:22;12.85;;;8.00;;
18647;SDS011;9453;50.294;18.644;2023-08-20T09:35:49;11.57;;;8.00;;
18647;SDS011;9453;50.294;18.644;2023-08-20T09:38:18;11.55;;;7.20;;
18647;SDS011;9453;50.294;18.644;2023-08-20T09:40:46;9.90;;;7.50;;
18647;SDS011;9453;50.294;18.644;2023-08-20T09:43:16;8.63;;;7.55;;
18647;SDS011;9453;50.294;18.644;2023-08-20T09:45:44;8.20;;;6.82;;
18647;SDS011;9453;50.294;18.644;2023-08-20T09:48:13;8.25;;;6.57;;
18647;SDS011;9453;50.294;18.644;2023-08-20T09:50:44;8.57;;;6.38;;
18647;SDS011;9453;50.294;18.644;2023-08-20T09:53:16;9.50;;;7.38;;
18647;SDS011;9453;50.294;18.644;2023-08-20T09:55:48;10.20;;;6.60;;
18647;SDS011;9453;50.294;18.644;2023-08-20T09:58:16;11.82;;;6.65;;
18647;SDS011;9453;50.294;18.644;2023-08-20T10:00:48;8.93;;;6.57;;
18647;SDS011;9453;50.294;18.644;2023-08-20T10:03:16;9.10;;;6.55;;
18647;SDS011;9453;50.294;18.644;2023-08-20T10:05:44;7.38;;;6.30;;
18647;SDS011;9453;50.294;18.644;2023-08-20T10:08:13;9.13;;;6.97;;
18647;SDS011;9453;50.294;18.644;2023-08-20T10:10:41;9.52;;;6.93;;
18647;SDS011;9453;50.294;18.644;2023-08-20T10:13:08;9.45;;;7.03;;
18647;SDS011;9453;50.294;18.644;2023-08-20T10:15:35;8.95;;;6.90;;
18647;SDS011;9453;50.294;18.644;2023-08-20T10:18:07;9.25;;;6.80;;
18647;SDS011;9453;50.294;18.644;2023-08-20T10:20:34;10.25;;;7.38;;
18647;SDS011;9453;50.294;18.644;2023-08-20T10:23:02;7.10;;;6.35;;
18647;SDS011;9453;50.294;18.644;2023-08-20T10:25:30;8.23;;;6.70;;
18647;SDS011;9453;50.294;18.644;2023-08-20T10:28:10;13.90;;;6.57;;
18647;SDS011;9453;50.294;18.644;2023-08-20T10:30:39;9.57;;;6.00;;
18647;SDS011;9453;50.294;18.644;2023-08-20T10:33:35;6.72;;;5.57;;
18647;SDS011;9453;50.294;18.644;2023-08-20T10:36:14;7.03;;;6.28;;
18647;SDS011;9453;50.294;18.644;2023-08-20T10:38:42;7.57;;;5.70;;
18647;SDS011;9453;50.294;18.644;2023-08-20T10:41:11;7.15;;;5.22;;
18647;SDS011;9453;50.294;18.644;2023-08-20T10:43:46;7.65;;;6.05;;
18647;SDS011;9453;50.294;18.644;2023-08-20T10:46:14;8.82;;;6.38;;
18647;SDS011;9453;50.294;18.644;2023-08-20T10:48:46;7.97;;;6.20;;
18647;SDS011;9453;50.294;18.644;2023-08-20T10:51:15;10.52;;;7.50;;
18647;SDS011;9453;50.294;18.644;2023-08-20T10:53:48;12.02;;;6.63;;
18647;SDS011;9453;50.294;18.644;2023-08-20T10:56:37;9.77;;;6.57;;
18647;SDS011;9453;50.294;18.644;2023-08-20T10:59:07;9.00;;;7.20;;
18647;SDS011;9453;50.294;18.644;2023-08-20T11:01:34;7.65;;;6.47;;
18647;SDS011;9453;50.294;18.644;2023-08-20T11:04:04;10.73;;;7.05;;
18647;SDS011;9453;50.294;18.644;2023-08-20T11:06:32;11.18;;;7.15;;
18647;SDS011;9453;50.294;18.644;2023-08-20T11:09:00;10.77;;;7.18;;
18647;SDS011;9453;50.294;18.644;2023-08-20T11:11:30;9.05;;;6.68;;
18647;SDS011;9453;50.294;18.644;2023-08-20T11:14:03;12.93;;;7.40;;
18647;SDS011;9453;50.294;18.644;2023-08-20T11:16:31;8.13;;;7.00;;
18647;SDS011;9453;50.294;18.644;2023-08-20T11:18:58;8.38;;;7.00;;
18647;SDS011;9453;50.294;18.644;2023-08-20T11:21:27;8.10;;;6.63;;
18647;SDS011;9453;50.294;18.644;2023-08-20T11:23:54;8.13;;;6.65;;
18647;SDS011;9453;50.294;18.644;2023-08-20T11:26:21;7.63;;;6.82;;
18647;SDS011;9453;50.294;18.644;2023-08-20T11:28:48;8.65;;;7.28;;
18647;SDS011;9453;50.294;18.644;2023-08-20T11:31:15;8.27;;;7.28;;
18647;SDS011;9453;50.294;18.644;2023-08-20T11:33:42;9.30;;;7.50;;
18647;SDS011;9453;50.294;18.644;2023-08-20T11:36:09;11.02;;;7.60;;
18647;SDS011;9453;50.294;18.644;2023-08-20T11:38:38;9.45;;;7.28;;
18647;SDS011;9453;50.294;18.644;2023-08-20T11:41:05;8.10;;;6.90;;
18647;SDS011;9453;50.294;18.644;2023-08-20T11:43:32;9.70;;;6.72;;
18647;SDS011;9453;50.294;18.644;2023-08-20T11:45:59;9.07;;;6.68;;
18647;SDS011;9453;50.294;18.644;2023-08-20T11:48:26;8.00;;;6.68;;
18647;SDS011;9453;50.294;18.644;2023-08-20T11:50:53;8.82;;;7.20;;
18647;SDS011;9453;50.294;18.644;2023-08-20T11:53:23;10.15;;;7.40;;
18647;SDS011;9453;50.294;18.644;2023-08-20T11:55:51;8.05;;;7.18;;
18647;SDS011;9453;50.294;18.644;2023-08-20T11:58:18;10.90;;;7.80;;
18647;SDS011;9453;50.294;18.644;2023-08-20T12:00:48;7.65;;;6.82;;
18647;SDS011;9453;50.294;18.644;2023-08-20T12:03:17;10.38;;;7.07;;
18647;SDS011;9453;50.294;18.644;2023-08-20T12:05:44;8.35;;;6.82;;
18647;SDS011;9453;50.294;18.644;2023-08-20T12:08:14;9.98;;;7.03;;
18647;SDS011;9453;50.294;18.644;2023-08-20T12:10:42;10.05;;;7.38;;
18647;SDS011;9453;50.294;18.644;2023-08-20T12:13:11;10.55;;;7.00;;
18647;SDS011;9453;50.294;18.644;2023-08-20T12:15:38;8.73;;;7.38;;
18647;SDS011;9453;50.294;18.644;2023-08-20T12:18:05;8.18;;;7.00;;
18647;SDS011;9453;50.294;18.644;2023-08-20T12:20:34;10.57;;;6.55;;
18647;SDS011;9453;50.294;18.644;2023-08-20T12:23:02;9.32;;;7.03;;
18647;SDS011;9453;50.294;18.644;2023-08-20T12:25:31;7.97;;;6.70;;
18647;SDS011;9453;50.294;18.644;2023-08-20T12:28:00;9.43;;;7.47;;
18647;SDS011;9453;50.294;18.644;2023-08-20T12:33:37;8.52;;;7.07;;
18647;SDS011;9453;50.294;18.644;2023-08-20T12:36:04;7.88;;;6.57;;
18647;SDS011;9453;50.294;18.644;2023-08-20T12:38:31;7.90;;;6.63;;
18647;SDS011;9453;50.294;18.644;2023-08-20T12:40:59;10.38;;;6.93;;
18647;SDS011;9453;50.294;18.644;2023-08-20T12:43:29;13.02;;;6.78;;
18647;SDS011;9453;50.294;18.644;2023-08-20T12:45:55;6.82;;;6.13;;
18647;SDS011;9453;50.294;18.644;2023-08-20T12:48:22;7.32;;;6.28;;
18647;SDS011;9453;50.294;18.644;2023-08-20T12:50:51;7.25;;;6.03;;
18647;SDS011;9453;50.294;18.644;2023-08-20T12:53:18;8.85;;;5.97;;
18647;SDS011;9453;50.294;18.644;2023-08-20T12:55:45;7.40;;;6.18;;
18647;SDS011;9453;50.294;18.644;2023-08-20T12:58:12;7.00;;;5.75;;
18647;SDS011;9453;50.294;18.644;2023-08-20T13:00:39;7.10;;;6.40;;
18647;SDS011;9453;50.294;18.644;2023-08-20T13:03:06;9.73;;;6.15;;
18647;SDS011;9453;50.294;18.644;2023-08-20T13:05:34;7.70;;;5.50;;
18647;SDS011;9453;50.294;18.644;2023-08-20T13:08:03;6.75;;;5.18;;
18647;SDS011;9453;50.294;18.644;2023-08-20T13:10:31;6.88;;;5.50;;
18647;SDS011;9453;50.294;18.644;2023-08-20T13:13:00;9.20;;;5.50;;
18647;SDS011;9453;50.294;18.644;2023-08-20T13:15:28;7.13;;;5.43;;
18647;SDS011;9453;50.294;18.644;2023-08-20T13:17:55;6.35;;;5.07;;
18647;SDS011;9453;50.294;18.644;2023-08-20T13:20:23;6.78;;;5.32;;
18647;SDS011;9453;50.294;18.644;2023-08-20T13:22:50;6.78;;;5.00;;
18647;SDS011;9453;50.294;18.644;2023-08-20T13:25:19;6.43;;;4.95;;
18647;SDS011;9453;50.294;18.644;2023-08-20T13:27:47;7.93;;;4.82;;
18647;SDS011;9453;50.294;18.644;2023-08-20T13:30:14;6.82;;;5.10;;
18647;SDS011;9453;50.294;18.644;2023-08-20T13:32:42;8.65;;;4.95;;
18647;SDS011;9453;50.294;18.644;2023-08-20T13:35:09;5.93;;;5.13;;
18647;SDS011;9453;50.294;18.644;2023-08-20T13:37:36;5.32;;;4.82;;
18647;SDS011;9453;50.294;18.644;2023-08-20T13:40:03;5.43;;;4.90;;
18647;SDS011;9453;50.294;18.644;2023-08-20T13:42:34;7.03;;;4.95;;
18647;SDS011;9453;50.294;18.644;2023-08-20T13:45:01;8.30;;;4.97;;
18647;SDS011;9453;50.294;18.644;2023-08-20T13:47:28;6.45;;;5.07;;
18647;SDS011;9453;50.294;18.644;2023-08-20T13:49:55;5.93;;;5.10;;
18647;SDS011;9453;50.294;18.644;2023-08-20T13:52:23;5.45;;;4.72;;
18647;SDS011;9453;50.294;18.644;2023-08-20T13:54:50;6.88;;;4.80;;
18647;SDS011;9453;50.294;18.644;2023-08-20T13:57:17;5.47;;;4.97;;
18647;SDS011;9453;50.294;18.644;2023-08-20T13:59:45;5.97;;;5.32;;
18647;SDS011;9453;50.294;18.644;2023-08-20T14:02:12;7.00;;;5.32;;
18647;SDS011;9453;50.294;18.644;2023-08-20T14:04:39;6.10;;;4.80;;
18647;SDS011;9453;50.294;18.644;2023-08-20T14:07:06;6.32;;;4.97;;
18647;SDS011;9453;50.294;18.644;2023-08-20T14:09:33;6.35;;;4.85;;
18647;SDS011;9453;50.294;18.644;2023-08-20T14:12:01;6.82;;;5.00;;
18647;SDS011;9453;50.294;18.644;2023-08-20T14:14:28;9.57;;;5.00;;
18647;SDS011;9453;50.294;18.644;2023-08-20T14:16:56;8.57;;;5.13;;
18647;SDS011;9453;50.294;18.644;2023-08-20T14:19:23;6.50;;;4.80;;
18647;SDS011;9453;50.294;18.644;2023-08-20T14:21:50;5.93;;;4.47;;
18647;SDS011;9453;50.294;18.644;2023-08-20T14:24:17;4.90;;;4.40;;
18647;SDS011;9453;50.294;18.644;2023-08-20T14:26:44;7.93;;;4.93;;
18647;SDS011;9453;50.294;18.644;2023-08-20T14:29:11;6.03;;;4.75;;
18647;SDS011;9453;50.294;18.644;2023-08-20T14:31:38;8.15;;;4.60;;
18647;SDS011;9453;50.294;18.644;2023-08-20T14:34:06;7.03;;;4.88;;
18647;SDS011;9453;50.294;18.644;2023-08-20T14:36:33;5.13;;;4.30;;
18647;SDS011;9453;50.294;18.644;2023-08-20T14:39:00;6.25;;;5.03;;
18647;SDS011;9453;50.294;18.644;2023-08-20T14:41:29;8.65;;;4.78;;
18647;SDS011;9453;50.294;18.644;2023-08-20T14:43:56;9.73;;;4.78;;
18647;SDS011;9453;50.294;18.644;2023-08-20T14:46:23;6.68;;;4.20;;
18647;SDS011;9453;50.294;18.644;2023-08-20T14:48:50;6.93;;;4.30;;
18647;SDS011;9453;50.294;18.644;2023-08-20T14:51:20;7.43;;;4.22;;
18647;SDS011;9453;50.294;18.644;2023-08-20T14:53:48;6.25;;;4.65;;
18647;SDS011;9453;50.294;18.644;2023-08-20T14:56:15;5.10;;;4.57;;
18647;SDS011;9453;50.294;18.644;2023-08-20T14:58:42;9.05;;;4.90;;
18647;SDS011;9453;50.294;18.644;2023-08-20T15:01:09;7.85;;;4.10;;
18647;SDS011;9453;50.294;18.644;2023-08-20T15:03:36;6.63;;;5.00;;
18647;SDS011;9453;50.294;18.644;2023-08-20T15:06:04;7.38;;;5.03;;
18647;SDS011;9453;50.294;18.644;2023-08-20T15:08:32;6.15;;;4.32;;
18647;SDS011;9453;50.294;18.644;2023-08-20T15:10:59;8.13;;;4.82;;
18647;SDS011;9453;50.294;18.644;2023-08-20T15:13:28;8.25;;;5.20;;
18647;SDS011;9453;50.294;18.644;2023-08-20T15:15:55;5.47;;;4.97;;
18647;SDS011;9453;50.294;18.644;2023-08-20T15:18:22;5.63;;;4.70;;
18647;SDS011;9453;50.294;18.644;2023-08-20T15:20:53;5.88;;;5.30;;
18647;SDS011;9453;50.294;18.644;2023-08-20T15:23:22;6.50;;;5.25;;
18647;SDS011;9453;50.294;18.644;2023-08-20T15:25:50;10.60;;;6.00;;
18647;SDS011;9453;50.294;18.644;2023-08-20T15:28:18;6.25;;;5.53;;
18647;SDS011;9453;50.294;18.644;2023-08-20T15:30:45;8.93;;;5.95;;
18647;SDS011;9453;50.294;18.644;2023-08-20T15:33:12;9.00;;;5.75;;
18647;SDS011;9453;50.294;18.644;2023-08-20T15:35:40;7.45;;;5.63;;
18647;SDS011;9453;50.294;18.644;2023-08-20T15:38:07;6.65;;;5.63;;
18647;SDS011;9453;50.294;18.644;2023-08-20T15:40:33;10.75;;;5.90;;
18647;SDS011;9453;50.294;18.644;2023-08-20T15:43:02;9.10;;;5.70;;
18647;SDS011;9453;50.294;18.644;2023-08-20T15:45:29;6.22;;;5.55;;
18647;SDS011;9453;50.294;18.644;2023-08-20T15:47:56;6.32;;;5.68;;
18647;SDS011;9453;50.294;18.644;2023-08-20T15:50:23;7.50;;;5.75;;
18647;SDS011;9453;50.294;18.644;2023-08-20T15:52:52;6.75;;;5.40;;
18647;SDS011;9453;50.294;18.644;2023-08-20T15:55:19;6.82;;;6.00;;
18647;SDS011;9453;50.294;18.644;2023-08-20T15:57:49;8.15;;;6.03;;
18647;SDS011;9453;50.294;18.644;2023-08-20T16:00:18;6.90;;;5.90;;
18647;SDS011;9453;50.294;18.644;2023-08-20T16:02:46;8.25;;;5.43;;
18647;SDS011;9453;50.294;18.644;2023-08-20T16:05:14;6.82;;;5.78;;
18647;SDS011;9453;50.294;18.644;2023-08-20T16:07:42;8.02;;;5.90;;
18647;SDS011;9453;50.294;18.644;2023-08-20T16:10:09;9.27;;;5.88;;
18647;SDS011;9453;50.294;18.644;2023-08-20T16:12:36;6.70;;;5.80;;
18647;SDS011;9453;50.294;18.644;2023-08-20T16:15:04;8.23;;;5.90;;
18647;SDS011;9453;50.294;18.644;2023-08-20T16:17:32;6.63;;;5.95;;
18647;SDS011;9453;50.294;18.644;2023-08-20T16:20:00;8.98;;;6.25;;
18647;SDS011;9453;50.294;18.644;2023-08-20T16:22:28;6.22;;;5.38;;
18647;SDS011;9453;50.294;18.644;2023-08-20T16:24:55;6.65;;;5.93;;
18647;SDS011;9453;50.294;18.644;2023-08-20T16:27:22;6.68;;;5.95;;
18647;SDS011;9453;50.294;18.644;2023-08-20T16:29:49;10.00;;;5.57;;
18647;SDS011;9453;50.294;18.644;2023-08-20T16:32:16;10.93;;;6.93;;
18647;SDS011;9453;50.294;18.644;2023-08-20T16:34:45;6.82;;;5.68;;
18647;SDS011;9453;50.294;18.644;2023-08-20T16:37:12;6.85;;;5.45;;
18647;SDS011;9453;50.294;18.644;2023-08-20T16:39:40;5.55;;;4.97;;
18647;SDS011;9453;50.294;18.644;2023-08-20T16:42:07;7.72;;;5.70;;
18647;SDS011;9453;50.294;18.644;2023-08-20T16:44:34;6.57;;;5.43;;
18647;SDS011;9453;50.294;18.644;2023-08-20T16:47:01;6.10;;;5.43;;
18647;SDS011;9453;50.294;18.644;2023-08-20T16:49:28;6.28;;;5.25;;
18647;SDS011;9453;50.294;18.644;2023-08-20T16:51:57;6.28;;;5.65;;
18647;SDS011;9453;50.294;18.644;2023-08-20T16:54:24;6.88;;;5.97;;
18647;SDS011;9453;50.294;18.644;2023-08-20T16:56:51;8.38;;;5.93;;
18647;SDS011;9453;50.294;18.644;2023-08-20T16:59:18;7.70;;;5.40;;
18647;SDS011;9453;50.294;18.644;2023-08-20T17:01:45;7.30;;;5.78;;
18647;SDS011;9453;50.294;18.644;2023-08-20T17:06:45;7.00;;;5.38;;
18647;SDS011;9453;50.294;18.644;2023-08-20T17:09:21;8.43;;;6.03;;
18647;SDS011;9453;50.294;18.644;2023-08-20T17:11:58;6.57;;;5.78;;
18647;SDS011;9453;50.294;18.644;2023-08-20T17:14:25;8.68;;;6.13;;
18647;SDS011;9453;50.294;18.644;2023-08-20T17:16:52;9.13;;;5.78;;
18647;SDS011;9453;50.294;18.644;2023-08-20T17:19:19;5.85;;;5.22;;
18647;SDS011;9453;50.294;18.644;2023-08-20T17:21:46;5.80;;;5.07;;
18647;SDS011;9453;50.294;18.644;2023-08-20T17:24:13;5.38;;;4.85;;
18647;SDS011;9453;50.294;18.644;2023-08-20T17:26:42;8.98;;;6.63;;
18647;SDS011;9453;50.294;18.644;2023-08-20T17:29:09;9.73;;;6.80;;
18647;SDS011;9453;50.294;18.644;2023-08-20T17:31:36;8.57;;;7.05;;
18647;SDS011;9453;50.294;18.644;2023-08-20T17:34:03;8.18;;;6.55;;
18647;SDS011;9453;50.294;18.644;2023-08-20T17:36:30;10.25;;;6.05;;
18647;SDS011;9453;50.294;18.644;2023-08-20T17:38:57;6.43;;;5.72;;
18647;SDS011;9453;50.294;18.644;2023-08-20T17:41:24;7.03;;;5.40;;
18647;SDS011;9453;50.294;18.644;2023-08-20T17:43:53;6.05;;;5.25;;
18647;SDS011;9453;50.294;18.644;2023-08-20T17:46:20;5.30;;;4.80;;
18647;SDS011;9453;50.294;18.644;2023-08-20T17:48:47;6.13;;;4.85;;
18647;SDS011;9453;50.294;18.644;2023-08-20T17:51:14;7.25;;;5.53;;
18647;SDS011;9453;50.294;18.644;2023-08-20T17:53:41;6.03;;;5.18;;
18647;SDS011;9453;50.294;18.644;2023-08-20T17:56:07;6.10;;;4.88;;
18647;SDS011;9453;50.294;18.644;2023-08-20T17:58:34;7.47;;;4.85;;
18647;SDS011;9453;50.294;18.644;2023-08-20T18:01:03;6.10;;;5.30;;
18647;SDS011;9453;50.294;18.644;2023-08-20T18:03:30;5.90;;;5.03;;
18647;SDS011;9453;50.294;18.644;2023-08-20T18:05:57;5.60;;;5.00;;
18647;SDS011;9453;50.294;18.644;2023-08-20T18:08:26;6.65;;;5.10;;
18647;SDS011;9453;50.294;18.644;2023-08-20T18:10:53;5.65;;;4.97;;
18647;SDS011;9453;50.294;18.644;2023-08-20T18:13:20;5.75;;;4.93;;
18647;SDS011;9453;50.294;18.644;2023-08-20T18:15:50;6.22;;;5.10;;
18647;SDS011;9453;50.294;18.644;2023-08-20T18:18:18;6.28;;;5.07;;
18647;SDS011;9453;50.294;18.644;2023-08-20T18:20:45;5.88;;;5.28;;
18647;SDS011;9453;50.294;18.644;2023-08-20T18:23:12;6.78;;;6.07;;
18647;SDS011;9453;50.294;18.644;2023-08-20T18:25:40;6.50;;;5.32;;
18647;SDS011;9453;50.294;18.644;2023-08-20T18:28:08;6.22;;;5.43;;
18647;SDS011;9453;50.294;18.644;2023-08-20T18:30:35;8.27;;;5.55;;
18647;SDS011;9453;50.294;18.644;2023-08-20T18:33:03;8.05;;;6.35;;
18647;SDS011;9453;50.294;18.644;2023-08-20T18:35:32;8.20;;;6.50;;
18647;SDS011;9453;50.294;18.644;2023-08-20T18:38:00;10.23;;;7.10;;
18647;SDS011;9453;50.294;18.644;2023-08-20T18:40:27;10.70;;;7.10;;
18647;SDS011;9453;50.294;18.644;2023-08-20T18:42:53;8.73;;;6.53;;
18647;SDS011;9453;50.294;18.644;2023-08-20T18:45:20;8.05;;;6.47;;
18647;SDS011;9453;50.294;18.644;2023-08-20T18:47:47;8.45;;;6.20;;